sensor_id;sensor_type;location;lat;lon;timestamp;P1;durP1;ratioP1;P2;durP2;ratioP2
76610;SDS011;65503;48.534;9.062;2023-07-31T00:01:02;6.07;;;2.97;;
76610;SDS011;65503;48.534;9.062;2023-07-31T00:03:29;8.95;;;3.05;;
76610;SDS011;65503;48.534;9.062;2023-07-31T00:05:55;6.13;;;3.20;;
76610;SDS011;65503;48.534;9.062;2023-07-31T00:08:22;7.63;;;2.70;;
76610;SDS011;65503;48.534;9.062;2023-07-31T00:10:51;7.22;;;2.80;;
76610;SDS011;65503;48.534;9.062;2023-07-31T00:13:19;8.27;;;3.05;;
76610;SDS011;65503;48.534;9.062;2023-07-31T00:15:45;5.78;;;2.70;;
76610;SDS011;65503;48.534;9.062;2023-07-31T00:18:12;6.55;;;2.75;;
76610;SDS011;65503;48.534;9.062;2023-07-31T00:20:39;7.88;;;3.15;;
76610;SDS011;65503;48.534;9.062;2023-07-31T00:23:06;5.63;;;2.83;;
76610;SDS011;65503;48.534;9.062;2023-07-31T00:25:32;7.28;;;2.72;;
76610;SDS011;65503;48.534;9.062;2023-07-31T00:27:59;6.90;;;2.38;;
76610;SDS011;65503;48.534;9.062;2023-07-31T00:30:26;5.93;;;2.97;;
76610;SDS011;65503;48.534;9.062;2023-07-31T00:32:53;8.23;;;2.70;;
76610;SDS011;65503;48.534;9.062;2023-07-31T00:35:19;7.32;;;3.38;;
76610;SDS011;65503;48.534;9.062;2023-07-31T00:37:46;7.25;;;2.78;;
76610;SDS011;65503;48.534;9.062;2023-07-31T00:40:12;5.47;;;2.55;;
76610;SDS011;65503;48.534;9.062;2023-07-31T00:42:40;7.25;;;2.42;;
76610;SDS011;65503;48.534;9.062;2023-07-31T00:45:07;6.78;;;2.58;;
76610;SDS011;65503;48.534;9.062;2023-07-31T00:47:34;5.20;;;2.80;;
76610;SDS011;65503;48.534;9.062;2023-07-31T00:50:00;7.55;;;2.83;;
76610;SDS011;65503;48.534;9.062;2023-07-31T00:52:27;5.65;;;2.72;;
76610;SDS011;65503;48.534;9.062;2023-07-31T00:54:53;7.68;;;2.55;;
76610;SDS011;65503;48.534;9.062;2023-07-31T00:57:20;6.80;;;2.33;;
76610;SDS011;65503;48.534;9.062;2023-07-31T00:59:46;6.38;;;2.80;;
76610;SDS011;65503;48.534;9.062;2023-07-31T01:02:13;6.07;;;3.00;;
76610;SDS011;65503;48.534;9.062;2023-07-31T01:04:41;6.72;;;2.80;;
76610;SDS011;65503;48.534;9.062;2023-07-31T01:07:45;7.22;;;2.83;;
76610;SDS011;65503;48.534;9.062;2023-07-31T01:10:13;6.50;;;2.75;;
76610;SDS011;65503;48.534;9.062;2023-07-31T01:12:44;6.35;;;2.60;;
76610;SDS011;65503;48.534;9.062;2023-07-31T01:15:11;5.32;;;2.80;;
76610;SDS011;65503;48.534;9.062;2023-07-31T01:17:38;6.10;;;2.80;;
76610;SDS011;65503;48.534;9.062;2023-07-31T01:20:08;6.95;;;3.08;;
76610;SDS011;65503;48.534;9.062;2023-07-31T01:28:25;6.63;;;2.83;;
76610;SDS011;65503;48.534;9.062;2023-07-31T01:30:58;9.50;;;3.38;;
76610;SDS011;65503;48.534;9.062;2023-07-31T01:33:26;7.43;;;3.08;;
76610;SDS011;65503;48.534;9.062;2023-07-31T01:35:54;7.43;;;3.53;;
76610;SDS011;65503;48.534;9.062;2023-07-31T01:38:22;8.25;;;3.10;;
76610;SDS011;65503;48.534;9.062;2023-07-31T01:40:51;6.93;;;3.35;;
76610;SDS011;65503;48.534;9.062;2023-07-31T01:43:19;5.75;;;3.08;;
76610;SDS011;65503;48.534;9.062;2023-07-31T01:45:46;6.70;;;3.10;;
76610;SDS011;65503;48.534;9.062;2023-07-31T01:48:13;8.93;;;2.83;;
76610;SDS011;65503;48.534;9.062;2023-07-31T01:50:40;7.25;;;3.17;;
76610;SDS011;65503;48.534;9.062;2023-07-31T01:53:06;5.93;;;3.30;;
76610;SDS011;65503;48.534;9.062;2023-07-31T01:55:33;6.03;;;2.67;;
76610;SDS011;65503;48.534;9.062;2023-07-31T01:57:59;7.15;;;3.22;;
76610;SDS011;65503;48.534;9.062;2023-07-31T02:00:26;8.68;;;3.53;;
76610;SDS011;65503;48.534;9.062;2023-07-31T02:02:52;8.38;;;3.13;;
76610;SDS011;65503;48.534;9.062;2023-07-31T02:05:19;8.90;;;3.50;;
76610;SDS011;65503;48.534;9.062;2023-07-31T02:07:45;10.13;;;3.33;;
76610;SDS011;65503;48.534;9.062;2023-07-31T02:10:12;6.40;;;3.30;;
76610;SDS011;65503;48.534;9.062;2023-07-31T02:12:38;6.65;;;3.13;;
76610;SDS011;65503;48.534;9.062;2023-07-31T02:15:05;8.88;;;3.42;;
76610;SDS011;65503;48.534;9.062;2023-07-31T02:17:32;7.07;;;3.20;;
76610;SDS011;65503;48.534;9.062;2023-07-31T02:19:58;7.75;;;3.63;;
76610;SDS011;65503;48.534;9.062;2023-07-31T02:22:25;7.47;;;3.67;;
76610;SDS011;65503;48.534;9.062;2023-07-31T02:24:51;7.18;;;3.55;;
76610;SDS011;65503;48.534;9.062;2023-07-31T02:27:18;7.93;;;3.50;;
76610;SDS011;65503;48.534;9.062;2023-07-31T02:29:44;13.20;;;4.20;;
76610;SDS011;65503;48.534;9.062;2023-07-31T02:32:11;6.65;;;3.25;;
76610;SDS011;65503;48.534;9.062;2023-07-31T02:34:38;7.60;;;3.38;;
76610;SDS011;65503;48.534;9.062;2023-07-31T02:37:05;8.95;;;3.25;;
76610;SDS011;65503;48.534;9.062;2023-07-31T02:39:32;5.38;;;3.38;;
76610;SDS011;65503;48.534;9.062;2023-07-31T02:41:59;7.05;;;3.10;;
76610;SDS011;65503;48.534;9.062;2023-07-31T02:44:26;5.75;;;3.00;;
76610;SDS011;65503;48.534;9.062;2023-07-31T02:46:53;7.05;;;2.97;;
76610;SDS011;65503;48.534;9.062;2023-07-31T02:49:19;6.18;;;3.17;;
76610;SDS011;65503;48.534;9.062;2023-07-31T02:51:46;5.53;;;2.95;;
76610;SDS011;65503;48.534;9.062;2023-07-31T02:54:12;7.82;;;2.70;;
76610;SDS011;65503;48.534;9.062;2023-07-31T02:56:39;4.80;;;2.72;;
76610;SDS011;65503;48.534;9.062;2023-07-31T02:59:06;7.47;;;3.40;;
76610;SDS011;65503;48.534;9.062;2023-07-31T03:01:32;7.88;;;3.60;;
76610;SDS011;65503;48.534;9.062;2023-07-31T03:03:59;6.75;;;3.50;;
76610;SDS011;65503;48.534;9.062;2023-07-31T03:06:26;5.60;;;3.17;;
76610;SDS011;65503;48.534;9.062;2023-07-31T03:08:53;7.35;;;3.47;;
76610;SDS011;65503;48.534;9.062;2023-07-31T03:11:20;8.02;;;2.92;;
76610;SDS011;65503;48.534;9.062;2023-07-31T03:13:46;8.10;;;3.60;;
76610;SDS011;65503;48.534;9.062;2023-07-31T03:16:13;7.93;;;3.10;;
76610;SDS011;65503;48.534;9.062;2023-07-31T03:18:39;8.27;;;3.50;;
76610;SDS011;65503;48.534;9.062;2023-07-31T03:21:06;9.13;;;3.40;;
76610;SDS011;65503;48.534;9.062;2023-07-31T03:23:32;7.85;;;3.00;;
76610;SDS011;65503;48.534;9.062;2023-07-31T03:26:03;7.63;;;3.33;;
76610;SDS011;65503;48.534;9.062;2023-07-31T03:28:32;8.00;;;3.30;;
76610;SDS011;65503;48.534;9.062;2023-07-31T03:30:58;10.75;;;3.63;;
76610;SDS011;65503;48.534;9.062;2023-07-31T03:33:25;6.10;;;3.10;;
76610;SDS011;65503;48.534;9.062;2023-07-31T03:35:52;6.47;;;3.42;;
76610;SDS011;65503;48.534;9.062;2023-07-31T03:38:19;5.47;;;2.97;;
76610;SDS011;65503;48.534;9.062;2023-07-31T03:40:46;6.63;;;2.92;;
76610;SDS011;65503;48.534;9.062;2023-07-31T03:43:12;6.60;;;3.20;;
76610;SDS011;65503;48.534;9.062;2023-07-31T03:45:39;5.68;;;3.10;;
76610;SDS011;65503;48.534;9.062;2023-07-31T03:48:06;7.32;;;3.33;;
76610;SDS011;65503;48.534;9.062;2023-07-31T03:50:34;7.60;;;3.38;;
76610;SDS011;65503;48.534;9.062;2023-07-31T03:53:00;6.47;;;3.25;;
76610;SDS011;65503;48.534;9.062;2023-07-31T03:55:27;6.18;;;3.50;;
76610;SDS011;65503;48.534;9.062;2023-07-31T03:57:53;6.78;;;3.03;;
76610;SDS011;65503;48.534;9.062;2023-07-31T04:00:20;6.35;;;3.60;;
76610;SDS011;65503;48.534;9.062;2023-07-31T04:02:48;6.45;;;3.13;;
76610;SDS011;65503;48.534;9.062;2023-07-31T04:05:15;5.72;;;3.05;;
76610;SDS011;65503;48.534;9.062;2023-07-31T04:07:41;8.38;;;3.28;;
76610;SDS011;65503;48.534;9.062;2023-07-31T04:10:08;6.25;;;3.30;;
76610;SDS011;65503;48.534;9.062;2023-07-31T04:12:38;7.65;;;3.30;;
76610;SDS011;65503;48.534;9.062;2023-07-31T04:15:05;6.97;;;3.10;;
76610;SDS011;65503;48.534;9.062;2023-07-31T04:17:32;6.60;;;3.40;;
76610;SDS011;65503;48.534;9.062;2023-07-31T04:19:59;5.15;;;2.90;;
76610;SDS011;65503;48.534;9.062;2023-07-31T04:22:25;6.25;;;3.60;;
76610;SDS011;65503;48.534;9.062;2023-07-31T04:24:52;6.22;;;3.25;;
76610;SDS011;65503;48.534;9.062;2023-07-31T04:27:19;6.07;;;2.92;;
76610;SDS011;65503;48.534;9.062;2023-07-31T04:29:45;4.85;;;2.70;;
76610;SDS011;65503;48.534;9.062;2023-07-31T04:32:13;8.93;;;2.90;;
76610;SDS011;65503;48.534;9.062;2023-07-31T04:34:43;6.03;;;2.83;;
76610;SDS011;65503;48.534;9.062;2023-07-31T04:37:10;5.15;;;2.70;;
76610;SDS011;65503;48.534;9.062;2023-07-31T04:39:36;5.55;;;2.70;;
76610;SDS011;65503;48.534;9.062;2023-07-31T04:42:03;5.30;;;2.58;;
76610;SDS011;65503;48.534;9.062;2023-07-31T04:44:29;4.85;;;2.50;;
76610;SDS011;65503;48.534;9.062;2023-07-31T04:46:56;4.75;;;2.60;;
76610;SDS011;65503;48.534;9.062;2023-07-31T04:49:23;4.43;;;2.47;;
76610;SDS011;65503;48.534;9.062;2023-07-31T04:51:49;5.50;;;2.58;;
76610;SDS011;65503;48.534;9.062;2023-07-31T04:54:16;5.72;;;2.70;;
76610;SDS011;65503;48.534;9.062;2023-07-31T04:56:43;6.28;;;2.53;;
76610;SDS011;65503;48.534;9.062;2023-07-31T04:59:09;4.38;;;2.10;;
76610;SDS011;65503;48.534;9.062;2023-07-31T05:01:36;5.03;;;2.47;;
76610;SDS011;65503;48.534;9.062;2023-07-31T05:04:03;4.43;;;2.15;;
76610;SDS011;65503;48.534;9.062;2023-07-31T05:06:29;4.60;;;2.33;;
76610;SDS011;65503;48.534;9.062;2023-07-31T05:08:56;6.68;;;2.58;;
76610;SDS011;65503;48.534;9.062;2023-07-31T05:11:22;4.28;;;2.08;;
76610;SDS011;65503;48.534;9.062;2023-07-31T05:13:49;6.03;;;2.40;;
76610;SDS011;65503;48.534;9.062;2023-07-31T05:16:16;5.25;;;2.20;;
76610;SDS011;65503;48.534;9.062;2023-07-31T05:18:42;4.55;;;2.30;;
76610;SDS011;65503;48.534;9.062;2023-07-31T05:21:09;4.53;;;2.15;;
76610;SDS011;65503;48.534;9.062;2023-07-31T05:23:36;4.30;;;2.00;;
76610;SDS011;65503;48.534;9.062;2023-07-31T05:26:06;6.10;;;2.00;;
76610;SDS011;65503;48.534;9.062;2023-07-31T05:28:34;3.70;;;1.88;;
76610;SDS011;65503;48.534;9.062;2023-07-31T05:31:04;6.78;;;1.92;;
76610;SDS011;65503;48.534;9.062;2023-07-31T05:33:31;3.70;;;1.83;;
76610;SDS011;65503;48.534;9.062;2023-07-31T05:35:58;3.63;;;1.73;;
76610;SDS011;65503;48.534;9.062;2023-07-31T05:38:24;5.38;;;2.53;;
76610;SDS011;65503;48.534;9.062;2023-07-31T05:40:51;4.00;;;1.70;;
76610;SDS011;65503;48.534;9.062;2023-07-31T05:43:17;4.85;;;1.75;;
76610;SDS011;65503;48.534;9.062;2023-07-31T05:45:44;4.72;;;1.58;;
76610;SDS011;65503;48.534;9.062;2023-07-31T05:48:10;5.47;;;1.90;;
76610;SDS011;65503;48.534;9.062;2023-07-31T05:50:37;4.43;;;1.60;;
76610;SDS011;65503;48.534;9.062;2023-07-31T05:53:06;7.45;;;1.80;;
76610;SDS011;65503;48.534;9.062;2023-07-31T05:55:34;4.18;;;1.60;;
76610;SDS011;65503;48.534;9.062;2023-07-31T05:58:01;10.95;;;1.90;;
76610;SDS011;65503;48.534;9.062;2023-07-31T06:00:27;4.85;;;1.70;;
76610;SDS011;65503;48.534;9.062;2023-07-31T06:02:54;4.75;;;1.60;;
76610;SDS011;65503;48.534;9.062;2023-07-31T06:05:21;5.57;;;1.85;;
76610;SDS011;65503;48.534;9.062;2023-07-31T06:07:48;5.97;;;1.63;;
76610;SDS011;65503;48.534;9.062;2023-07-31T06:10:14;4.68;;;2.20;;
76610;SDS011;65503;48.534;9.062;2023-07-31T06:12:41;5.78;;;1.65;;
76610;SDS011;65503;48.534;9.062;2023-07-31T06:15:08;5.15;;;2.10;;
76610;SDS011;65503;48.534;9.062;2023-07-31T06:17:34;5.90;;;1.95;;
76610;SDS011;65503;48.534;9.062;2023-07-31T06:20:01;3.72;;;1.95;;
76610;SDS011;65503;48.534;9.062;2023-07-31T06:22:29;5.53;;;2.08;;
76610;SDS011;65503;48.534;9.062;2023-07-31T06:24:56;5.05;;;1.88;;
76610;SDS011;65503;48.534;9.062;2023-07-31T06:27:22;5.13;;;2.13;;
76610;SDS011;65503;48.534;9.062;2023-07-31T06:29:49;5.25;;;1.73;;
76610;SDS011;65503;48.534;9.062;2023-07-31T06:32:15;3.97;;;2.00;;
76610;SDS011;65503;48.534;9.062;2023-07-31T06:34:42;3.10;;;1.60;;
76610;SDS011;65503;48.534;9.062;2023-07-31T06:37:08;3.75;;;1.60;;
76610;SDS011;65503;48.534;9.062;2023-07-31T06:39:35;4.53;;;1.70;;
76610;SDS011;65503;48.534;9.062;2023-07-31T06:42:02;2.78;;;1.50;;
76610;SDS011;65503;48.534;9.062;2023-07-31T06:44:28;4.03;;;1.70;;
76610;SDS011;65503;48.534;9.062;2023-07-31T06:46:55;5.78;;;1.83;;
76610;SDS011;65503;48.534;9.062;2023-07-31T06:49:21;5.80;;;1.60;;
76610;SDS011;65503;48.534;9.062;2023-07-31T06:51:48;3.33;;;1.33;;
76610;SDS011;65503;48.534;9.062;2023-07-31T06:54:14;4.43;;;1.85;;
76610;SDS011;65503;48.534;9.062;2023-07-31T06:56:41;4.75;;;1.48;;
76610;SDS011;65503;48.534;9.062;2023-07-31T06:59:08;2.67;;;1.40;;
76610;SDS011;65503;48.534;9.062;2023-07-31T07:01:35;3.20;;;1.60;;
76610;SDS011;65503;48.534;9.062;2023-07-31T07:04:02;3.35;;;1.50;;
76610;SDS011;65503;48.534;9.062;2023-07-31T07:06:28;6.47;;;1.80;;
76610;SDS011;65503;48.534;9.062;2023-07-31T07:08:54;4.90;;;1.60;;
76610;SDS011;65503;48.534;9.062;2023-07-31T07:11:21;5.90;;;1.55;;
76610;SDS011;65503;48.534;9.062;2023-07-31T07:13:47;4.85;;;1.80;;
76610;SDS011;65503;48.534;9.062;2023-07-31T07:16:14;4.88;;;1.80;;
76610;SDS011;65503;48.534;9.062;2023-07-31T07:18:41;5.03;;;1.65;;
76610;SDS011;65503;48.534;9.062;2023-07-31T07:21:27;4.47;;;1.50;;
76610;SDS011;65503;48.534;9.062;2023-07-31T07:23:54;3.95;;;1.70;;
76610;SDS011;65503;48.534;9.062;2023-07-31T07:26:20;5.45;;;1.42;;
76610;SDS011;65503;48.534;9.062;2023-07-31T07:28:47;4.53;;;1.50;;
76610;SDS011;65503;48.534;9.062;2023-07-31T07:31:13;5.05;;;1.90;;
76610;SDS011;65503;48.534;9.062;2023-07-31T07:33:39;4.90;;;1.77;;
76610;SDS011;65503;48.534;9.062;2023-07-31T07:36:06;7.43;;;1.80;;
76610;SDS011;65503;48.534;9.062;2023-07-31T07:38:36;4.78;;;1.60;;
76610;SDS011;65503;48.534;9.062;2023-07-31T07:41:03;5.72;;;1.83;;
76610;SDS011;65503;48.534;9.062;2023-07-31T07:43:30;6.97;;;1.70;;
76610;SDS011;65503;48.534;9.062;2023-07-31T07:45:56;5.15;;;1.55;;
76610;SDS011;65503;48.534;9.062;2023-07-31T07:48:23;5.63;;;2.20;;
76610;SDS011;65503;48.534;9.062;2023-07-31T07:50:51;4.50;;;1.80;;
76610;SDS011;65503;48.534;9.062;2023-07-31T07:53:18;5.38;;;2.00;;
76610;SDS011;65503;48.534;9.062;2023-07-31T07:55:44;5.20;;;1.23;;
76610;SDS011;65503;48.534;9.062;2023-07-31T07:58:10;4.97;;;1.40;;
76610;SDS011;65503;48.534;9.062;2023-07-31T08:00:38;4.43;;;1.63;;
76610;SDS011;65503;48.534;9.062;2023-07-31T08:03:04;5.00;;;1.40;;
76610;SDS011;65503;48.534;9.062;2023-07-31T08:08:00;4.70;;;1.63;;
76610;SDS011;65503;48.534;9.062;2023-07-31T08:10:26;5.45;;;1.73;;
76610;SDS011;65503;48.534;9.062;2023-07-31T08:12:53;3.50;;;1.30;;
76610;SDS011;65503;48.534;9.062;2023-07-31T08:15:20;3.53;;;1.20;;
76610;SDS011;65503;48.534;9.062;2023-07-31T08:17:46;5.43;;;1.45;;
76610;SDS011;65503;48.534;9.062;2023-07-31T08:20:13;4.50;;;1.50;;
76610;SDS011;65503;48.534;9.062;2023-07-31T08:22:40;6.15;;;1.60;;
76610;SDS011;65503;48.534;9.062;2023-07-31T08:25:07;5.55;;;1.73;;
76610;SDS011;65503;48.534;9.062;2023-07-31T08:27:34;4.75;;;1.23;;
76610;SDS011;65503;48.534;9.062;2023-07-31T08:30:00;3.28;;;1.40;;
76610;SDS011;65503;48.534;9.062;2023-07-31T08:34:53;6.65;;;1.90;;
76610;SDS011;65503;48.534;9.062;2023-07-31T08:37:20;5.20;;;1.70;;
76610;SDS011;65503;48.534;9.062;2023-07-31T08:39:46;6.72;;;1.70;;
76610;SDS011;65503;48.534;9.062;2023-07-31T08:42:13;3.38;;;1.33;;
76610;SDS011;65503;48.534;9.062;2023-07-31T08:47:07;5.82;;;1.80;;
76610;SDS011;65503;48.534;9.062;2023-07-31T08:49:34;7.80;;;1.77;;
76610;SDS011;65503;48.534;9.062;2023-07-31T08:52:01;6.75;;;1.70;;
76610;SDS011;65503;48.534;9.062;2023-07-31T08:56:57;5.05;;;1.60;;
76610;SDS011;65503;48.534;9.062;2023-07-31T08:59:27;6.50;;;2.22;;
76610;SDS011;65503;48.534;9.062;2023-07-31T09:01:57;4.55;;;1.67;;
76610;SDS011;65503;48.534;9.062;2023-07-31T09:04:29;8.82;;;1.58;;
76610;SDS011;65503;48.534;9.062;2023-07-31T09:06:57;5.72;;;1.95;;
76610;SDS011;65503;48.534;9.062;2023-07-31T09:09:27;5.25;;;2.17;;
76610;SDS011;65503;48.534;9.062;2023-07-31T09:11:54;7.03;;;1.80;;
76610;SDS011;65503;48.534;9.062;2023-07-31T09:14:21;6.43;;;1.95;;
76610;SDS011;65503;48.534;9.062;2023-07-31T09:19:25;4.78;;;1.60;;
76610;SDS011;65503;48.534;9.062;2023-07-31T09:21:53;5.47;;;1.60;;
76610;SDS011;65503;48.534;9.062;2023-07-31T09:24:30;6.07;;;1.90;;
76610;SDS011;65503;48.534;9.062;2023-07-31T09:26:58;4.57;;;1.80;;
76610;SDS011;65503;48.534;9.062;2023-07-31T09:29:26;4.72;;;1.60;;
76610;SDS011;65503;48.534;9.062;2023-07-31T09:31:54;6.05;;;1.92;;
76610;SDS011;65503;48.534;9.062;2023-07-31T09:34:28;5.68;;;1.65;;
76610;SDS011;65503;48.534;9.062;2023-07-31T09:37:01;6.10;;;2.22;;
76610;SDS011;65503;48.534;9.062;2023-07-31T09:39:29;5.20;;;1.98;;
76610;SDS011;65503;48.534;9.062;2023-07-31T09:41:56;5.07;;;1.73;;
76610;SDS011;65503;48.534;9.062;2023-07-31T09:44:41;8.65;;;2.67;;
76610;SDS011;65503;48.534;9.062;2023-07-31T09:47:21;8.27;;;2.80;;
76610;SDS011;65503;48.534;9.062;2023-07-31T09:49:50;9.02;;;2.03;;
76610;SDS011;65503;48.534;9.062;2023-07-31T09:52:17;9.48;;;1.90;;
76610;SDS011;65503;48.534;9.062;2023-07-31T09:54:43;6.80;;;1.92;;
76610;SDS011;65503;48.534;9.062;2023-07-31T09:57:10;7.13;;;2.40;;
76610;SDS011;65503;48.534;9.062;2023-07-31T09:59:38;5.97;;;2.53;;
76610;SDS011;65503;48.534;9.062;2023-07-31T10:02:05;6.38;;;1.90;;
76610;SDS011;65503;48.534;9.062;2023-07-31T10:04:41;5.90;;;2.00;;
76610;SDS011;65503;48.534;9.062;2023-07-31T10:07:12;5.20;;;1.85;;
76610;SDS011;65503;48.534;9.062;2023-07-31T10:09:40;5.80;;;1.83;;
76610;SDS011;65503;48.534;9.062;2023-07-31T10:14:35;5.57;;;1.90;;
76610;SDS011;65503;48.534;9.062;2023-07-31T10:17:02;7.05;;;2.03;;
76610;SDS011;65503;48.534;9.062;2023-07-31T10:19:31;10.68;;;2.17;;
76610;SDS011;65503;48.534;9.062;2023-07-31T10:22:00;4.57;;;1.80;;
76610;SDS011;65503;48.534;9.062;2023-07-31T10:24:29;5.68;;;1.67;;
76610;SDS011;65503;48.534;9.062;2023-07-31T10:26:57;7.15;;;2.13;;
76610;SDS011;65503;48.534;9.062;2023-07-31T10:29:26;7.22;;;1.90;;
76610;SDS011;65503;48.534;9.062;2023-07-31T10:31:56;5.22;;;1.80;;
76610;SDS011;65503;48.534;9.062;2023-07-31T10:34:24;6.03;;;1.90;;
76610;SDS011;65503;48.534;9.062;2023-07-31T10:37:19;5.95;;;1.90;;
76610;SDS011;65503;48.534;9.062;2023-07-31T10:42:33;7.28;;;2.10;;
76610;SDS011;65503;48.534;9.062;2023-07-31T10:45:05;6.18;;;1.92;;
76610;SDS011;65503;48.534;9.062;2023-07-31T10:47:42;5.15;;;1.70;;
76610;SDS011;65503;48.534;9.062;2023-07-31T10:50:18;5.15;;;1.92;;
76610;SDS011;65503;48.534;9.062;2023-07-31T10:52:46;5.97;;;1.85;;
76610;SDS011;65503;48.534;9.062;2023-07-31T10:55:35;6.95;;;2.08;;
76610;SDS011;65503;48.534;9.062;2023-07-31T11:00:36;5.22;;;1.73;;
76610;SDS011;65503;48.534;9.062;2023-07-31T11:03:08;4.18;;;1.80;;
76610;SDS011;65503;48.534;9.062;2023-07-31T11:05:44;4.30;;;2.00;;
76610;SDS011;65503;48.534;9.062;2023-07-31T11:08:14;4.60;;;1.83;;
76610;SDS011;65503;48.534;9.062;2023-07-31T11:10:42;4.15;;;1.85;;
76610;SDS011;65503;48.534;9.062;2023-07-31T11:13:09;4.90;;;1.83;;
76610;SDS011;65503;48.534;9.062;2023-07-31T11:15:36;6.65;;;2.03;;
76610;SDS011;65503;48.534;9.062;2023-07-31T11:18:02;6.93;;;1.88;;
76610;SDS011;65503;48.534;9.062;2023-07-31T11:20:30;5.22;;;1.60;;
76610;SDS011;65503;48.534;9.062;2023-07-31T11:23:01;6.93;;;1.88;;
76610;SDS011;65503;48.534;9.062;2023-07-31T11:25:31;5.65;;;1.85;;
76610;SDS011;65503;48.534;9.062;2023-07-31T11:28:02;7.35;;;1.90;;
76610;SDS011;65503;48.534;9.062;2023-07-31T11:30:30;7.68;;;2.10;;
76610;SDS011;65503;48.534;9.062;2023-07-31T11:32:56;5.88;;;2.25;;
76610;SDS011;65503;48.534;9.062;2023-07-31T11:35:23;7.00;;;2.05;;
76610;SDS011;65503;48.534;9.062;2023-07-31T11:40:16;4.38;;;1.70;;
76610;SDS011;65503;48.534;9.062;2023-07-31T11:42:44;5.82;;;2.00;;
76610;SDS011;65503;48.534;9.062;2023-07-31T11:45:11;5.57;;;1.83;;
76610;SDS011;65503;48.534;9.062;2023-07-31T11:47:37;7.82;;;2.10;;
76610;SDS011;65503;48.534;9.062;2023-07-31T11:52:36;5.63;;;2.10;;
76610;SDS011;65503;48.534;9.062;2023-07-31T11:55:06;6.00;;;2.00;;
76610;SDS011;65503;48.534;9.062;2023-07-31T11:57:37;6.35;;;1.95;;
76610;SDS011;65503;48.534;9.062;2023-07-31T12:00:06;6.93;;;2.10;;
76610;SDS011;65503;48.534;9.062;2023-07-31T12:02:34;5.68;;;2.15;;
76610;SDS011;65503;48.534;9.062;2023-07-31T12:05:01;6.13;;;2.70;;
76610;SDS011;65503;48.534;9.062;2023-07-31T12:10:08;5.68;;;2.10;;
76610;SDS011;65503;48.534;9.062;2023-07-31T12:12:35;4.90;;;1.95;;
76610;SDS011;65503;48.534;9.062;2023-07-31T12:15:02;7.20;;;2.53;;
76610;SDS011;65503;48.534;9.062;2023-07-31T12:17:28;5.10;;;2.10;;
76610;SDS011;65503;48.534;9.062;2023-07-31T12:22:23;7.40;;;2.33;;
76610;SDS011;65503;48.534;9.062;2023-07-31T12:24:49;6.78;;;2.03;;
76610;SDS011;65503;48.534;9.062;2023-07-31T12:27:20;8.27;;;2.35;;
76610;SDS011;65503;48.534;9.062;2023-07-31T12:29:48;5.30;;;2.05;;
76610;SDS011;65503;48.534;9.062;2023-07-31T12:32:19;7.20;;;2.15;;
76610;SDS011;65503;48.534;9.062;2023-07-31T12:34:46;4.70;;;1.85;;
76610;SDS011;65503;48.534;9.062;2023-07-31T12:37:13;7.95;;;3.03;;
76610;SDS011;65503;48.534;9.062;2023-07-31T12:39:40;5.80;;;2.20;;
76610;SDS011;65503;48.534;9.062;2023-07-31T12:42:06;5.70;;;2.25;;
76610;SDS011;65503;48.534;9.062;2023-07-31T12:44:33;6.28;;;2.00;;
76610;SDS011;65503;48.534;9.062;2023-07-31T12:46:59;5.43;;;2.10;;
76610;SDS011;65503;48.534;9.062;2023-07-31T12:49:26;6.78;;;1.98;;
76610;SDS011;65503;48.534;9.062;2023-07-31T12:51:52;5.35;;;1.80;;
76610;SDS011;65503;48.534;9.062;2023-07-31T12:54:20;5.97;;;1.92;;
76610;SDS011;65503;48.534;9.062;2023-07-31T12:56:46;5.63;;;1.88;;
76610;SDS011;65503;48.534;9.062;2023-07-31T12:59:13;5.28;;;2.13;;
76610;SDS011;65503;48.534;9.062;2023-07-31T13:01:40;6.15;;;1.77;;
76610;SDS011;65503;48.534;9.062;2023-07-31T13:04:06;7.47;;;2.30;;
76610;SDS011;65503;48.534;9.062;2023-07-31T13:06:34;5.95;;;2.20;;
76610;SDS011;65503;48.534;9.062;2023-07-31T13:09:01;6.90;;;2.60;;
76610;SDS011;65503;48.534;9.062;2023-07-31T13:11:27;6.80;;;2.67;;
76610;SDS011;65503;48.534;9.062;2023-07-31T13:13:54;5.32;;;1.85;;
76610;SDS011;65503;48.534;9.062;2023-07-31T13:16:21;5.55;;;1.90;;
76610;SDS011;65503;48.534;9.062;2023-07-31T13:18:47;6.90;;;2.22;;
76610;SDS011;65503;48.534;9.062;2023-07-31T13:21:14;4.82;;;1.85;;
76610;SDS011;65503;48.534;9.062;2023-07-31T13:23:40;4.25;;;2.00;;
76610;SDS011;65503;48.534;9.062;2023-07-31T13:26:07;6.07;;;1.80;;
76610;SDS011;65503;48.534;9.062;2023-07-31T13:28:34;6.93;;;2.13;;
76610;SDS011;65503;48.534;9.062;2023-07-31T13:31:00;5.60;;;2.10;;
76610;SDS011;65503;48.534;9.062;2023-07-31T13:33:27;4.10;;;1.92;;
76610;SDS011;65503;48.534;9.062;2023-07-31T13:36:02;4.95;;;2.20;;
76610;SDS011;65503;48.534;9.062;2023-07-31T13:38:29;6.97;;;2.47;;
76610;SDS011;65503;48.534;9.062;2023-07-31T13:40:55;4.65;;;1.90;;
76610;SDS011;65503;48.534;9.062;2023-07-31T13:43:23;6.78;;;2.40;;
76610;SDS011;65503;48.534;9.062;2023-07-31T13:45:49;5.78;;;2.13;;
76610;SDS011;65503;48.534;9.062;2023-07-31T13:48:15;6.15;;;2.25;;
76610;SDS011;65503;48.534;9.062;2023-07-31T13:50:42;4.90;;;1.85;;
76610;SDS011;65503;48.534;9.062;2023-07-31T13:53:08;5.40;;;1.83;;
76610;SDS011;65503;48.534;9.062;2023-07-31T13:55:35;5.18;;;2.45;;
76610;SDS011;65503;48.534;9.062;2023-07-31T13:58:02;5.20;;;1.90;;
76610;SDS011;65503;48.534;9.062;2023-07-31T14:00:28;4.10;;;1.88;;
76610;SDS011;65503;48.534;9.062;2023-07-31T14:02:55;5.72;;;1.95;;
76610;SDS011;65503;48.534;9.062;2023-07-31T14:05:22;5.65;;;1.90;;
76610;SDS011;65503;48.534;9.062;2023-07-31T14:07:48;6.05;;;2.30;;
76610;SDS011;65503;48.534;9.062;2023-07-31T14:10:15;4.85;;;1.80;;
76610;SDS011;65503;48.534;9.062;2023-07-31T14:12:42;8.07;;;2.33;;
76610;SDS011;65503;48.534;9.062;2023-07-31T14:17:35;6.13;;;2.15;;
76610;SDS011;65503;48.534;9.062;2023-07-31T14:20:02;3.90;;;1.85;;
76610;SDS011;65503;48.534;9.062;2023-07-31T14:22:30;5.55;;;2.20;;
76610;SDS011;65503;48.534;9.062;2023-07-31T14:24:57;7.05;;;2.53;;
76610;SDS011;65503;48.534;9.062;2023-07-31T14:27:23;6.30;;;2.10;;
76610;SDS011;65503;48.534;9.062;2023-07-31T14:29:50;5.38;;;1.80;;
76610;SDS011;65503;48.534;9.062;2023-07-31T14:32:16;7.68;;;2.15;;
76610;SDS011;65503;48.534;9.062;2023-07-31T14:34:43;4.07;;;1.92;;
76610;SDS011;65503;48.534;9.062;2023-07-31T14:37:09;6.10;;;2.30;;
76610;SDS011;65503;48.534;9.062;2023-07-31T14:39:36;5.30;;;1.98;;
76610;SDS011;65503;48.534;9.062;2023-07-31T14:42:06;5.90;;;2.05;;
76610;SDS011;65503;48.534;9.062;2023-07-31T14:44:33;5.05;;;2.10;;
76610;SDS011;65503;48.534;9.062;2023-07-31T14:46:59;4.20;;;1.80;;
76610;SDS011;65503;48.534;9.062;2023-07-31T14:49:26;5.07;;;2.33;;
76610;SDS011;65503;48.534;9.062;2023-07-31T14:51:54;5.80;;;1.90;;
76610;SDS011;65503;48.534;9.062;2023-07-31T14:54:20;4.45;;;1.95;;
76610;SDS011;65503;48.534;9.062;2023-07-31T14:56:47;7.68;;;2.00;;
76610;SDS011;65503;48.534;9.062;2023-07-31T14:59:14;6.28;;;1.98;;
76610;SDS011;65503;48.534;9.062;2023-07-31T15:01:41;5.57;;;2.22;;
76610;SDS011;65503;48.534;9.062;2023-07-31T15:04:08;4.22;;;2.00;;
76610;SDS011;65503;48.534;9.062;2023-07-31T15:06:34;5.53;;;1.88;;
76610;SDS011;65503;48.534;9.062;2023-07-31T15:09:01;4.28;;;2.00;;
76610;SDS011;65503;48.534;9.062;2023-07-31T15:11:27;4.30;;;1.80;;
76610;SDS011;65503;48.534;9.062;2023-07-31T15:13:54;5.05;;;1.98;;
76610;SDS011;65503;48.534;9.062;2023-07-31T15:16:20;6.10;;;2.13;;
76610;SDS011;65503;48.534;9.062;2023-07-31T15:18:47;6.63;;;2.05;;
76610;SDS011;65503;48.534;9.062;2023-07-31T15:21:14;5.78;;;2.33;;
76610;SDS011;65503;48.534;9.062;2023-07-31T15:23:40;5.70;;;2.05;;
76610;SDS011;65503;48.534;9.062;2023-07-31T15:26:07;5.32;;;2.15;;
76610;SDS011;65503;48.534;9.062;2023-07-31T15:28:33;7.38;;;2.05;;